createdAt,value
2023-01-09T00:00:08.035Z,9.97
2023-01-09T00:01:08.016Z,10.00
2023-01-09T00:02:07.956Z,9.94
2023-01-09T00:03:07.872Z,9.88
2023-01-09T00:04:27.888Z,9.89
2023-01-09T00:05:08.860Z,9.88
2023-01-09T00:06:07.840Z,9.93
2023-01-09T00:07:07.820Z,9.91
2023-01-09T00:08:07.867Z,9.88
2023-01-09T00:09:07.793Z,9.82
2023-01-09T00:10:07.773Z,9.82
2023-01-09T00:11:07.915Z,9.82
2023-01-09T00:12:07.750Z,9.82
2023-01-09T00:13:07.735Z,9.81
2023-01-09T00:14:09.210Z,9.70
2023-01-09T00:15:07.728Z,9.68
2023-01-09T00:16:07.705Z,9.70
2023-01-09T00:17:07.867Z,9.71
2023-01-09T00:18:07.680Z,9.76
2023-01-09T00:19:07.677Z,9.76
2023-01-09T00:20:31.038Z,9.79
2023-01-09T00:21:08.655Z,9.75
2023-01-09T00:22:07.601Z,9.71
2023-01-09T00:23:07.683Z,9.71
2023-01-09T00:24:07.653Z,9.75
2023-01-09T00:25:07.593Z,9.71
2023-01-09T00:26:07.553Z,9.67
2023-01-09T00:27:07.604Z,9.71
2023-01-09T00:28:07.552Z,9.75
2023-01-09T00:29:07.583Z,9.70
2023-01-09T00:30:07.538Z,9.73
2023-01-09T00:31:07.607Z,9.75
2023-01-09T00:32:07.488Z,9.71
2023-01-09T00:33:07.603Z,9.71
2023-01-09T00:34:07.450Z,9.73
2023-01-09T00:35:07.490Z,9.75
2023-01-09T00:36:07.449Z,9.73
2023-01-09T00:37:07.491Z,9.71
2023-01-09T00:38:07.445Z,9.70
2023-01-09T00:39:07.398Z,9.68
2023-01-09T00:40:07.450Z,9.68
2023-01-09T00:41:07.400Z,9.68
2023-01-09T00:42:07.349Z,9.67
2023-01-09T00:43:07.449Z,9.70
2023-01-09T00:44:07.335Z,9.68
2023-01-09T00:45:07.364Z,9.66
2023-01-09T00:46:07.492Z,9.70
2023-01-09T00:47:07.350Z,9.67
2023-01-09T00:48:07.269Z,9.67
2023-01-09T00:49:07.288Z,9.66
2023-01-09T00:50:07.265Z,9.63
2023-01-09T00:51:07.280Z,9.67
2023-01-09T00:52:07.437Z,9.67
2023-01-09T00:53:07.221Z,9.61
2023-01-09T00:54:07.182Z,9.63
2023-01-09T00:55:07.285Z,9.64
2023-01-09T00:56:07.207Z,9.63
2023-01-09T00:57:07.137Z,9.66
2023-01-09T00:58:07.257Z,9.64
2023-01-09T00:59:07.141Z,9.61
2023-01-09T01:00:07.108Z,9.60
2023-01-09T01:01:07.433Z,9.66
2023-01-09T01:02:07.355Z,9.66
2023-01-09T01:03:07.171Z,9.60
2023-01-09T01:04:07.127Z,9.58
2023-01-09T01:05:07.072Z,9.60
2023-01-09T01:06:07.006Z,9.60
2023-01-09T01:07:07.244Z,9.58
2023-01-09T01:08:07.061Z,9.53
2023-01-09T01:09:07.022Z,9.60
2023-01-09T01:10:07.159Z,9.58
2023-01-09T01:11:06.982Z,9.58
2023-01-09T01:12:07.029Z,9.60
2023-01-09T01:13:07.044Z,9.64
2023-01-09T01:14:06.946Z,9.63
2023-01-09T01:15:06.906Z,9.63
2023-01-09T01:16:07.058Z,9.68
2023-01-09T01:17:06.916Z,9.64
2023-01-09T01:18:06.884Z,9.68
2023-01-09T01:19:07.011Z,9.70
2023-01-09T01:20:06.835Z,9.64
2023-01-09T01:21:06.834Z,9.64
2023-01-09T01:22:06.918Z,9.70
2023-01-09T01:23:06.845Z,9.73
2023-01-09T01:24:06.783Z,9.76
2023-01-09T01:25:06.826Z,9.81
2023-01-09T01:26:06.741Z,9.79
2023-01-09T01:27:06.753Z,9.76
2023-01-09T01:28:06.882Z,9.75
2023-01-09T01:29:06.737Z,9.73
2023-01-09T01:30:06.746Z,9.78
2023-01-09T01:31:06.805Z,9.79
2023-01-09T01:32:06.656Z,9.82
2023-01-09T01:33:06.650Z,9.81
2023-01-09T01:34:06.810Z,9.76
2023-01-09T01:35:06.666Z,9.76
2023-01-09T01:36:06.615Z,9.75
2023-01-09T01:37:06.761Z,9.81
2023-01-09T01:38:06.589Z,9.79
2023-01-09T01:39:06.584Z,9.83
2023-01-09T01:40:06.741Z,9.86
2023-01-09T01:41:06.604Z,9.83
2023-01-09T01:42:06.572Z,9.91
2023-01-09T01:43:06.629Z,9.93
2023-01-09T01:44:06.519Z,9.96
2023-01-09T01:45:06.479Z,9.93
2023-01-09T01:47:15.866Z,9.81
2023-01-09T01:48:15.838Z,9.89
2023-01-09T01:49:15.902Z,9.97
2023-01-09T01:50:15.807Z,9.99
2023-01-09T01:51:15.873Z,9.96
2023-01-09T01:52:15.802Z,9.93
2023-01-09T01:53:15.813Z,9.89
2023-01-09T01:54:15.937Z,9.88
2023-01-09T01:55:15.734Z,9.91
2023-01-09T01:56:15.744Z,9.86
2023-01-09T01:57:15.755Z,9.89
2023-01-09T01:58:15.784Z,9.91
2023-01-09T01:59:15.737Z,9.94
2023-01-09T02:00:15.697Z,9.93
2023-01-09T02:01:15.804Z,9.89
2023-01-09T02:02:15.797Z,9.89
2023-01-09T02:03:15.640Z,9.93
2023-01-09T02:04:15.685Z,9.94
2023-01-09T02:05:15.673Z,9.94
2023-01-09T02:06:15.612Z,9.94
2023-01-09T02:07:15.641Z,9.89
2023-01-09T02:08:15.593Z,9.88
2023-01-09T02:09:15.585Z,9.89
2023-01-09T02:10:15.582Z,9.89
2023-01-09T02:11:15.571Z,9.93
2023-01-09T02:12:15.523Z,9.93
2023-01-09T02:13:15.561Z,9.96
2023-01-09T02:14:15.502Z,9.88
2023-01-09T02:15:15.493Z,9.86
2023-01-09T02:16:15.521Z,9.93
2023-01-09T02:17:15.503Z,9.94
2023-01-09T02:18:15.483Z,9.96
2023-01-09T02:19:15.418Z,9.99
2023-01-09T02:20:15.551Z,10.00
2023-01-09T02:21:15.400Z,9.94
2023-01-09T02:22:15.408Z,9.94
2023-01-09T02:23:27.125Z,9.99
2023-01-09T02:24:16.366Z,9.99
2023-01-09T02:25:15.358Z,9.97
2023-01-09T02:26:15.454Z,10.03
2023-01-09T02:27:15.320Z,10.03
2023-01-09T02:28:15.344Z,9.96
2023-01-09T02:29:15.286Z,9.97
2023-01-09T02:30:15.362Z,9.99
2023-01-09T02:31:15.315Z,10.01
2023-01-09T02:32:15.258Z,10.01
2023-01-09T02:33:15.299Z,10.01
2023-01-09T02:34:15.274Z,9.97
2023-01-09T02:35:15.233Z,10.00
2023-01-09T02:36:15.335Z,10.00
2023-01-09T02:37:15.198Z,9.99
2023-01-09T02:38:15.193Z,9.94
2023-01-09T02:39:15.251Z,9.94
2023-01-09T02:40:15.178Z,9.97
2023-01-09T02:41:15.120Z,9.97
2023-01-09T02:42:15.285Z,9.94
2023-01-09T02:43:15.099Z,9.94
2023-01-09T02:44:15.152Z,10.03
2023-01-09T02:45:15.261Z,10.06
2023-01-09T02:46:15.080Z,10.06
2023-01-09T02:47:15.072Z,10.01
2023-01-09T02:48:15.067Z,10.01
2023-01-09T02:49:15.027Z,10.04
2023-01-09T02:50:15.091Z,10.06
2023-01-09T02:51:15.002Z,10.06
2023-01-09T02:52:14.992Z,10.03
2023-01-09T02:53:14.987Z,10.03
2023-01-09T02:54:14.942Z,10.01
2023-01-09T02:55:14.979Z,9.97
2023-01-09T02:56:14.950Z,10.00
2023-01-09T02:57:14.933Z,9.99
2023-01-09T02:58:14.897Z,10.04
2023-01-09T02:59:14.892Z,10.01
2023-01-09T03:00:14.877Z,10.03
2023-01-09T03:01:15.044Z,10.03
2023-01-09T03:02:14.904Z,10.03
2023-01-09T03:03:14.932Z,9.97
2023-01-09T03:04:14.830Z,9.97
2023-01-09T03:05:14.851Z,9.94
2023-01-09T03:06:14.792Z,9.94
2023-01-09T03:07:14.780Z,9.91
2023-01-09T03:09:24.171Z,9.83
2023-01-09T03:10:24.173Z,9.91
2023-01-09T03:11:24.129Z,9.91
2023-01-09T03:12:24.150Z,9.93
2023-01-09T03:13:24.077Z,9.93
2023-01-09T03:14:24.077Z,9.86
2023-01-09T03:15:24.280Z,9.88
2023-01-09T03:16:24.109Z,9.85
2023-01-09T03:17:24.045Z,9.88
2023-01-09T03:18:24.120Z,9.86
2023-01-09T03:19:23.989Z,9.79
2023-01-09T03:20:23.997Z,9.75
2023-01-09T03:21:24.076Z,9.75
2023-01-09T03:22:23.989Z,9.73
2023-01-09T03:23:23.993Z,9.75
2023-01-09T03:24:23.983Z,9.78
2023-01-09T03:25:23.993Z,9.79
2023-01-09T03:26:23.929Z,9.79
2023-01-09T03:27:23.898Z,9.78
2023-01-09T03:28:24.029Z,9.76
2023-01-09T03:29:23.872Z,9.79
2023-01-09T03:30:23.848Z,9.79
2023-01-09T03:31:23.994Z,9.78
2023-01-09T03:32:23.851Z,9.81
2023-01-09T03:33:23.818Z,9.78
2023-01-09T03:34:23.885Z,9.81
2023-01-09T03:35:23.818Z,9.82
2023-01-09T03:36:23.783Z,9.81
2023-01-09T03:37:23.761Z,9.81
2023-01-09T03:38:23.871Z,9.83
2023-01-09T03:39:23.819Z,9.86
2023-01-09T03:40:23.737Z,9.88
2023-01-09T03:41:23.738Z,9.86
2023-01-09T03:42:23.727Z,9.83
2023-01-09T03:43:23.699Z,9.83
2023-01-09T03:44:23.688Z,9.79
2023-01-09T03:45:23.678Z,9.81
2023-01-09T03:46:23.643Z,9.76
2023-01-09T03:47:23.655Z,9.71
2023-01-09T03:48:23.725Z,9.71
2023-01-09T03:49:23.622Z,9.66
2023-01-09T03:50:23.585Z,9.70
2023-01-09T03:51:23.597Z,9.71
2023-01-09T03:52:23.565Z,9.71
2023-01-09T03:53:23.570Z,9.64
2023-01-09T03:54:23.560Z,9.64
2023-01-09T03:55:23.525Z,9.60
2023-01-09T03:56:23.523Z,9.66
2023-01-09T03:57:23.538Z,9.66
2023-01-09T03:58:23.648Z,9.61
2023-01-09T03:59:23.491Z,9.53
2023-01-09T04:00:23.457Z,9.49
2023-01-09T04:01:23.558Z,9.49
2023-01-09T04:02:23.484Z,9.48
2023-01-09T04:03:23.459Z,9.45
2023-01-09T04:04:23.545Z,9.39
2023-01-09T04:05:23.389Z,9.39
2023-01-09T04:06:23.376Z,9.38
2023-01-09T04:07:23.436Z,9.30
2023-01-09T04:08:23.351Z,9.25
2023-01-09T04:09:23.374Z,9.23
2023-01-09T04:10:23.348Z,9.24
2023-01-09T04:11:23.315Z,9.23
2023-01-09T04:12:23.316Z,9.21
2023-01-09T04:13:23.365Z,9.15
2023-01-09T04:14:23.281Z,9.16
2023-01-09T04:15:23.274Z,9.13
2023-01-09T04:16:23.307Z,9.12
2023-01-09T04:17:23.301Z,9.06
2023-01-09T04:18:23.216Z,9.10
2023-01-09T04:19:23.195Z,9.13
2023-01-09T04:20:23.196Z,9.13
2023-01-09T04:21:23.241Z,9.20
2023-01-09T04:22:23.156Z,9.16
2023-01-09T04:23:23.148Z,9.12
2023-01-09T04:24:23.148Z,9.02
2023-01-09T04:25:23.129Z,9.06
2023-01-09T04:26:23.107Z,9.10
2023-01-09T04:27:23.190Z,9.16
2023-01-09T04:28:23.086Z,9.18
2023-01-09T04:29:23.066Z,9.13
2023-01-09T04:30:23.179Z,9.04
2023-01-09T04:31:23.060Z,9.09
2023-01-09T04:32:23.051Z,9.02
2023-01-09T04:33:23.108Z,8.97
2023-01-09T04:34:22.992Z,9.01
2023-01-09T04:35:22.991Z,9.04
2023-01-09T04:36:22.968Z,9.02
2023-01-09T04:37:23.000Z,9.02
2023-01-09T04:38:23.003Z,8.93
2023-01-09T04:39:22.982Z,8.93
2023-01-09T04:40:22.923Z,8.93
2023-01-09T04:41:22.975Z,8.90
2023-01-09T04:42:22.914Z,8.88
2023-01-09T04:43:22.895Z,8.88
2023-01-09T04:44:22.927Z,8.91
2023-01-09T04:45:22.897Z,8.87
2023-01-09T04:46:22.837Z,8.88
2023-01-09T04:47:22.879Z,8.81
2023-01-09T04:48:22.835Z,8.84
2023-01-09T04:49:22.817Z,8.88
2023-01-09T04:50:22.864Z,8.86
2023-01-09T04:51:22.810Z,8.86
2023-01-09T04:52:22.757Z,8.88
2023-01-09T04:53:22.809Z,8.88
2023-01-09T04:54:37.217Z,8.91
2023-01-09T04:55:23.765Z,8.84
2023-01-09T04:56:22.792Z,8.88
2023-01-09T04:57:22.872Z,8.88
2023-01-09T04:58:22.779Z,8.86
2023-01-09T04:59:22.687Z,8.87
2023-01-09T05:00:22.731Z,8.86
2023-01-09T05:01:22.863Z,8.83
2023-01-09T05:02:22.769Z,8.83
2023-01-09T05:03:22.644Z,8.81
2023-01-09T05:04:22.690Z,8.81
2023-01-09T05:05:22.688Z,8.88
2023-01-09T05:06:22.570Z,8.86
2023-01-09T05:07:22.578Z,8.88
2023-01-09T05:08:22.534Z,8.87
2023-01-09T05:09:22.648Z,8.83
2023-01-09T05:10:22.513Z,8.86
2023-01-09T05:11:22.496Z,8.83
2023-01-09T05:12:30.749Z,8.83
2023-01-09T05:13:22.466Z,8.81
2023-01-09T05:14:22.464Z,8.81
2023-01-09T05:15:22.511Z,8.81
2023-01-09T05:17:31.869Z,8.83
2023-01-09T05:18:31.815Z,8.84
2023-01-09T05:19:31.927Z,8.81
2023-01-09T05:20:31.882Z,8.84
2023-01-09T05:21:31.810Z,8.84
2023-01-09T05:22:31.744Z,8.87
2023-01-09T05:23:31.823Z,8.91
2023-01-09T05:24:31.733Z,8.87
2023-01-09T05:25:31.759Z,8.88
2023-01-09T05:26:31.713Z,8.83
2023-01-09T05:27:31.774Z,8.83
2023-01-09T05:29:41.064Z,8.81
2023-01-09T05:30:41.055Z,8.83
2023-01-09T05:31:41.168Z,8.83
2023-01-09T05:32:41.003Z,8.81
2023-01-09T05:33:41.013Z,8.84
2023-01-09T05:34:40.991Z,8.86
2023-01-09T05:35:40.950Z,8.87
2023-01-09T05:36:41.035Z,8.86
2023-01-09T05:37:41.041Z,8.88
2023-01-09T05:38:40.960Z,8.87
2023-01-09T05:39:40.945Z,8.86
2023-01-09T05:40:41.010Z,8.86
2023-01-09T05:41:40.891Z,8.87
2023-01-09T05:42:40.858Z,8.88
2023-01-09T05:43:41.015Z,8.91
2023-01-09T05:44:40.830Z,8.88
2023-01-09T05:45:40.854Z,8.88
2023-01-09T05:46:40.992Z,8.91
2023-01-09T05:47:40.810Z,8.94
2023-01-09T05:48:40.788Z,8.93
2023-01-09T05:49:40.946Z,8.94
2023-01-09T05:50:40.779Z,8.93
2023-01-09T05:51:40.765Z,8.91
2023-01-09T05:52:40.905Z,8.91
2023-01-09T05:53:40.768Z,8.90
2023-01-09T05:54:40.700Z,8.88
2023-01-09T05:55:40.742Z,8.90
2023-01-09T05:56:40.676Z,8.94
2023-01-09T05:57:40.700Z,8.96
2023-01-09T05:58:40.654Z,8.94
2023-01-09T05:59:40.618Z,8.94
2023-01-09T06:00:40.697Z,8.91
2023-01-09T06:01:40.713Z,8.90
2023-01-09T06:02:40.780Z,8.90
2023-01-09T06:03:40.637Z,8.88
2023-01-09T06:04:54.748Z,8.90
2023-01-09T06:05:40.555Z,8.88
2023-01-09T06:06:55.851Z,8.87
2023-01-09T06:07:41.567Z,8.84
2023-01-09T06:08:40.527Z,8.83
2023-01-09T06:10:17.104Z,8.83
2023-01-09T06:10:41.538Z,8.72
2023-01-09T06:11:40.461Z,8.76
2023-01-09T06:12:40.469Z,8.76
2023-01-09T06:13:40.522Z,8.72
2023-01-09T06:14:40.469Z,8.71
2023-01-09T06:15:40.568Z,8.71
2023-01-09T06:16:43.457Z,8.71
2023-01-09T06:17:40.393Z,8.68
2023-01-09T06:18:40.433Z,8.71
2023-01-09T06:19:40.447Z,8.68
2023-01-09T06:20:40.641Z,8.65
2023-01-09T06:21:40.431Z,8.63
2023-01-09T06:22:40.462Z,8.63
2023-01-09T06:23:40.385Z,8.63
2023-01-09T06:24:42.144Z,8.65
2023-01-09T06:25:40.306Z,8.66
2023-01-09T06:26:40.319Z,8.63
2023-01-09T06:28:49.648Z,8.57
2023-01-09T06:29:49.605Z,8.60
2023-01-09T06:30:49.769Z,8.63
2023-01-09T06:31:49.627Z,8.63
2023-01-09T06:32:49.625Z,8.63
2023-01-09T06:33:49.558Z,8.63
2023-01-09T06:34:49.565Z,8.66
2023-01-09T06:35:49.625Z,8.72
2023-01-09T06:36:49.568Z,8.69
2023-01-09T06:37:49.588Z,8.71
2023-01-09T06:38:49.711Z,8.69
2023-01-09T06:39:49.496Z,8.62
2023-01-09T06:40:49.556Z,8.62
2023-01-09T06:41:49.463Z,8.65
2023-01-09T06:43:12.135Z,8.68
2023-01-09T06:43:49.447Z,8.66
2023-01-09T06:44:49.416Z,8.68
2023-01-09T06:45:49.521Z,8.69
2023-01-09T06:46:49.421Z,8.66
2023-01-09T06:47:49.379Z,8.66
2023-01-09T06:48:49.358Z,8.68
2023-01-09T06:49:49.474Z,8.68
2023-01-09T06:50:49.350Z,8.69
2023-01-09T06:51:49.326Z,8.75
2023-01-09T06:52:49.342Z,8.71
2023-01-09T06:53:49.346Z,8.71
2023-01-09T06:54:49.293Z,8.71
2023-01-09T06:55:49.266Z,8.73
2023-01-09T06:56:49.537Z,8.69
2023-01-09T06:57:49.442Z,8.68
2023-01-09T06:58:49.248Z,8.71
2023-01-09T06:59:49.284Z,8.73
2023-01-09T07:00:49.268Z,8.75
2023-01-09T07:01:49.456Z,8.73
2023-01-09T07:02:49.214Z,8.75
2023-01-09T07:04:02.316Z,8.73
2023-01-09T07:04:49.172Z,8.71
2023-01-09T07:05:49.191Z,8.71
2023-01-09T07:06:49.126Z,8.66
2023-01-09T07:08:10.530Z,8.68
2023-01-09T07:08:49.108Z,8.69
2023-01-09T07:09:49.173Z,8.75
2023-01-09T07:10:49.147Z,8.78
2023-01-09T07:11:49.072Z,8.83
2023-01-09T07:12:49.081Z,8.81
2023-01-09T07:13:49.196Z,8.79
2023-01-09T07:14:50.039Z,8.75
2023-01-09T07:15:49.043Z,8.69
2023-01-09T07:16:49.166Z,8.73
2023-01-09T07:17:49.129Z,8.78
2023-01-09T07:18:48.974Z,8.76
2023-01-09T07:20:06.026Z,8.69
2023-01-09T07:20:49.962Z,8.66
2023-01-09T07:21:49.065Z,8.62
2023-01-09T07:22:49.044Z,8.63
2023-01-09T07:23:48.957Z,8.62
2023-01-09T07:24:48.902Z,8.66
2023-01-09T07:25:48.937Z,8.69
2023-01-09T07:26:48.962Z,8.71
2023-01-09T07:27:48.899Z,8.73
2023-01-09T07:28:48.890Z,8.78
2023-01-09T07:29:49.046Z,8.75
2023-01-09T07:30:48.852Z,8.75
2023-01-09T07:31:48.784Z,8.78
2023-01-09T07:32:48.771Z,8.83
2023-01-09T07:33:48.786Z,8.81
2023-01-09T07:34:48.845Z,8.81
2023-01-09T07:35:48.726Z,8.84
2023-01-09T07:36:48.831Z,8.84
2023-01-09T07:37:48.767Z,8.91
2023-01-09T07:38:48.844Z,8.88
2023-01-09T07:39:48.704Z,8.78
2023-01-09T07:40:48.808Z,8.75
2023-01-09T07:41:48.658Z,8.79
2023-01-09T07:42:48.643Z,8.83
2023-01-09T07:43:48.686Z,8.81
2023-01-09T07:44:48.658Z,8.83
2023-01-09T07:45:48.611Z,8.87
2023-01-09T07:46:48.673Z,8.88
2023-01-09T07:47:48.609Z,8.88
2023-01-09T07:48:48.575Z,8.90
2023-01-09T07:49:48.756Z,8.94
2023-01-09T07:50:48.544Z,8.93
2023-01-09T07:51:48.651Z,8.96
2023-01-09T07:52:48.558Z,8.99
2023-01-09T07:53:48.648Z,8.96
2023-01-09T07:54:48.516Z,9.01
2023-01-09T07:55:48.492Z,9.05
2023-01-09T07:56:48.456Z,9.01
2023-01-09T07:57:48.671Z,9.05
2023-01-09T07:58:48.510Z,9.12
2023-01-09T07:59:48.457Z,9.09
2023-01-09T08:00:48.474Z,9.06
2023-01-09T08:01:48.566Z,9.05
2023-01-09T08:02:48.477Z,8.97
2023-01-09T08:03:48.400Z,8.97
2023-01-09T08:04:48.562Z,8.99
2023-01-09T08:05:51.254Z,8.93
2023-01-09T08:06:48.371Z,8.90
2023-01-09T08:07:48.483Z,8.96
2023-01-09T08:08:48.414Z,9.02
2023-01-09T08:09:48.361Z,9.01
2023-01-09T08:10:48.394Z,8.99
2023-01-09T08:11:48.413Z,8.94
2023-01-09T08:12:48.356Z,8.97
2023-01-09T08:13:48.276Z,9.04
2023-01-09T08:14:48.243Z,8.97
2023-01-09T08:15:48.524Z,8.93
2023-01-09T08:16:48.269Z,8.84
2023-01-09T08:17:48.289Z,8.87
2023-01-09T08:18:48.171Z,8.88
2023-01-09T08:19:48.355Z,8.93
2023-01-09T08:20:48.175Z,8.90
2023-01-09T08:21:48.126Z,8.94
2023-01-09T08:22:48.285Z,9.02
2023-01-09T08:23:48.145Z,9.06
2023-01-09T08:24:48.095Z,9.12
2023-01-09T08:25:48.295Z,9.15
2023-01-09T08:26:48.050Z,9.05
2023-01-09T08:27:48.073Z,9.06
2023-01-09T08:29:14.116Z,9.12
2023-01-09T08:29:49.038Z,9.06
2023-01-09T08:30:47.983Z,9.09
2023-01-09T08:31:48.105Z,9.06
2023-01-09T08:32:48.138Z,9.05
2023-01-09T08:33:47.957Z,9.09
2023-01-09T08:34:48.044Z,9.09
2023-01-09T08:35:47.980Z,9.06
2023-01-09T08:36:47.949Z,9.09
2023-01-09T08:37:48.070Z,9.13
2023-01-09T08:38:47.907Z,9.21
2023-01-09T08:39:48.705Z,9.24
2023-01-09T08:40:48.127Z,9.27
2023-01-09T08:41:47.912Z,9.23
2023-01-09T08:42:47.842Z,9.18
2023-01-09T08:43:47.885Z,9.18
2023-01-09T08:44:47.886Z,9.21
2023-01-09T08:45:47.821Z,9.25
2023-01-09T08:46:48.049Z,9.30
2023-01-09T08:47:47.855Z,9.27
2023-01-09T08:48:47.888Z,9.27
2023-01-09T08:49:47.798Z,9.21
2023-01-09T08:50:47.888Z,9.15
2023-01-09T08:51:47.803Z,9.21
2023-01-09T08:52:47.723Z,9.27
2023-01-09T08:53:47.898Z,9.27
2023-01-09T08:54:47.717Z,9.35
2023-01-09T08:55:47.674Z,9.28
2023-01-09T08:56:47.715Z,9.24
2023-01-09T08:57:47.622Z,9.27
2023-01-09T08:58:47.634Z,9.32
2023-01-09T08:59:47.680Z,9.30
2023-01-09T09:00:47.663Z,9.40
2023-01-09T09:01:47.588Z,9.46
2023-01-09T09:02:47.802Z,9.50
2023-01-09T09:03:47.600Z,9.57
2023-01-09T09:04:47.639Z,9.63
2023-01-09T09:05:47.613Z,9.61
2023-01-09T09:06:47.529Z,9.57
2023-01-09T09:07:47.498Z,9.52
2023-01-09T09:08:47.638Z,9.50
2023-01-09T09:09:47.542Z,9.53
2023-01-09T09:10:47.571Z,9.63
2023-01-09T09:11:47.799Z,9.63
2023-01-09T09:12:47.464Z,9.58
2023-01-09T09:13:47.488Z,9.53
2023-01-09T09:14:47.600Z,9.53
2023-01-09T09:15:47.522Z,9.58
2023-01-09T09:16:47.548Z,9.66
2023-01-09T09:17:47.697Z,9.68
2023-01-09T09:18:47.477Z,9.71
2023-01-09T09:19:47.383Z,9.76
2023-01-09T09:20:47.572Z,9.71
2023-01-09T09:21:47.350Z,9.68
2023-01-09T09:22:47.436Z,9.67
2023-01-09T09:23:47.512Z,9.67
2023-01-09T09:24:47.321Z,9.68
2023-01-09T09:25:47.309Z,9.71
2023-01-09T09:26:47.429Z,9.66
2023-01-09T09:28:06.613Z,9.73
2023-01-09T09:28:48.257Z,9.67
2023-01-09T09:29:47.230Z,9.68
2023-01-09T09:30:47.259Z,9.76
2023-01-09T09:31:47.214Z,9.81
2023-01-09T09:32:47.193Z,9.82
2023-01-09T09:33:47.280Z,9.81
2023-01-09T09:34:47.197Z,9.85
2023-01-09T09:35:47.209Z,9.86
2023-01-09T09:36:47.254Z,9.81
2023-01-09T09:37:47.126Z,9.83
2023-01-09T09:38:47.149Z,9.83
2023-01-09T09:39:47.265Z,9.83
2023-01-09T09:40:47.219Z,9.83
2023-01-09T09:41:47.078Z,9.88
2023-01-09T09:43:37.748Z,9.82
2023-01-09T09:43:48.022Z,9.68
2023-01-09T09:44:53.390Z,9.76
2023-01-09T09:45:48.055Z,9.81
2023-01-09T09:46:47.073Z,9.75
2023-01-09T09:47:47.056Z,9.78
2023-01-09T09:48:46.998Z,9.83
2023-01-09T09:49:46.998Z,9.94
2023-01-09T09:50:47.075Z,10.00
2023-01-09T09:51:47.005Z,9.99
2023-01-09T09:52:46.967Z,10.00
2023-01-09T09:53:46.986Z,10.07
2023-01-09T09:54:47.007Z,10.14
2023-01-09T09:55:46.890Z,10.22
2023-01-09T09:56:46.897Z,10.32
2023-01-09T09:57:46.968Z,10.28
2023-01-09T09:58:46.846Z,10.33
2023-01-09T09:59:46.826Z,10.36
2023-01-09T10:00:47.064Z,10.36
2023-01-09T10:01:46.825Z,10.42
2023-01-09T10:02:46.807Z,10.40
2023-01-09T10:03:46.878Z,10.34
2023-01-09T10:04:46.806Z,10.25
2023-01-09T10:05:46.753Z,10.22
2023-01-09T10:06:46.734Z,10.17
2023-01-09T10:07:50.741Z,10.18
2023-01-09T10:08:46.715Z,10.18
2023-01-09T10:09:46.765Z,10.21
2023-01-09T10:11:15.984Z,10.21
2023-01-09T10:11:47.650Z,10.17
2023-01-09T10:12:46.628Z,10.21
2023-01-09T10:13:46.637Z,10.24
2023-01-09T10:14:46.667Z,10.30
2023-01-09T10:15:46.736Z,10.21
2023-01-09T10:16:46.673Z,10.21
2023-01-09T10:17:46.577Z,10.19
2023-01-09T10:18:46.585Z,10.22
2023-01-09T10:19:46.700Z,10.28
2023-01-09T10:20:46.577Z,10.25
2023-01-09T10:21:46.592Z,10.32
2023-01-09T10:22:46.644Z,10.39
2023-01-09T10:23:46.506Z,10.37
2023-01-09T10:24:46.583Z,10.37
2023-01-09T10:25:46.523Z,10.37
2023-01-09T10:26:46.471Z,10.40
2023-01-09T10:27:46.507Z,10.37
2023-01-09T10:28:46.595Z,10.26
2023-01-09T10:29:46.455Z,10.26
2023-01-09T10:30:46.384Z,10.30
2023-01-09T10:31:46.454Z,10.25
2023-01-09T10:32:46.374Z,10.26
2023-01-09T10:33:46.417Z,10.30
2023-01-09T10:34:58.054Z,10.26
2023-01-09T10:35:47.934Z,10.25
2023-01-09T10:36:46.393Z,10.22
2023-01-09T10:37:46.436Z,10.21
2023-01-09T10:38:46.310Z,10.24
2023-01-09T10:39:46.279Z,10.32
2023-01-09T10:40:50.554Z,10.36
2023-01-09T10:41:46.250Z,10.30
2023-01-09T10:42:46.273Z,10.30
2023-01-09T10:43:46.239Z,10.32
2023-01-09T10:44:46.365Z,10.40
2023-01-09T10:45:46.187Z,10.46
2023-01-09T10:46:46.499Z,10.52
2023-01-09T10:47:46.289Z,10.52
2023-01-09T10:48:46.165Z,10.44
2023-01-09T10:49:46.183Z,10.46
2023-01-09T10:50:46.239Z,10.47
2023-01-09T10:51:46.179Z,10.40
2023-01-09T10:52:46.279Z,10.44
2023-01-09T10:53:46.126Z,10.53
2023-01-09T10:54:46.163Z,10.55
2023-01-09T10:55:46.234Z,10.53
2023-01-09T10:56:46.057Z,10.51
2023-01-09T10:57:46.084Z,10.46
2023-01-09T10:58:46.237Z,10.51
2023-01-09T10:59:46.017Z,10.51
2023-01-09T11:00:46.116Z,10.53
2023-01-09T11:01:45.994Z,10.51
2023-01-09T11:02:45.985Z,10.47
2023-01-09T11:03:45.973Z,10.51
2023-01-09T11:04:45.974Z,10.51
2023-01-09T11:05:46.200Z,10.42
2023-01-09T11:06:45.905Z,10.44
2023-01-09T11:07:45.895Z,10.53
2023-01-09T11:08:46.017Z,10.65
2023-01-09T11:09:45.889Z,10.70
2023-01-09T11:10:45.864Z,10.76
2023-01-09T11:11:45.901Z,10.77
2023-01-09T11:12:45.918Z,10.70
2023-01-09T11:13:45.855Z,10.70
2023-01-09T11:14:45.823Z,10.73
2023-01-09T11:15:45.965Z,10.71
2023-01-09T11:16:45.797Z,10.71
2023-01-09T11:17:45.790Z,10.65
2023-01-09T11:18:45.773Z,10.68
2023-01-09T11:19:45.815Z,10.71
2023-01-09T11:20:45.727Z,10.71
2023-01-09T11:21:45.784Z,10.63
2023-01-09T11:22:45.743Z,10.63
2023-01-09T11:23:45.678Z,10.66
2023-01-09T11:24:45.754Z,10.68
2023-01-09T11:25:45.816Z,10.68
2023-01-09T11:26:45.691Z,10.66
2023-01-09T11:27:45.654Z,10.58
2023-01-09T11:28:45.623Z,10.56
2023-01-09T11:29:45.617Z,10.47
2023-01-09T11:30:45.616Z,10.47
2023-01-09T11:31:45.723Z,10.39
2023-01-09T11:32:45.573Z,10.37
2023-01-09T11:33:45.624Z,10.33
2023-01-09T11:34:45.613Z,10.30
2023-01-09T11:35:45.571Z,10.26
2023-01-09T11:37:15.031Z,10.33
2023-01-09T11:37:46.530Z,10.21
2023-01-09T11:38:45.476Z,10.32
2023-01-09T11:39:45.495Z,10.39
2023-01-09T11:40:45.518Z,10.42
2023-01-09T11:41:45.496Z,10.44
2023-01-09T11:42:45.474Z,10.47
2023-01-09T11:43:45.539Z,10.47
2023-01-09T11:44:45.420Z,10.51
2023-01-09T11:45:53.230Z,10.51
2023-01-09T11:46:46.620Z,10.55
2023-01-09T11:47:45.347Z,10.53
2023-01-09T11:48:45.494Z,10.59
2023-01-09T11:49:45.392Z,10.62
2023-01-09T11:50:45.327Z,10.63
2023-01-09T11:51:45.455Z,10.66
2023-01-09T11:52:45.277Z,10.71
2023-01-09T11:53:45.275Z,10.63
2023-01-09T11:54:45.478Z,10.60
2023-01-09T11:55:45.405Z,10.65
2023-01-09T11:56:45.232Z,10.68
2023-01-09T11:57:45.248Z,10.63
2023-01-09T11:58:45.219Z,10.71
2023-01-09T11:59:45.224Z,10.74
2023-01-09T12:00:45.182Z,10.68
2023-01-09T12:01:45.510Z,10.73
2023-01-09T12:02:45.199Z,10.71
2023-01-09T12:03:45.214Z,10.78
2023-01-09T12:04:45.292Z,10.77
2023-01-09T12:05:45.141Z,10.86
2023-01-09T12:06:45.127Z,10.89
2023-01-09T12:07:45.190Z,10.92
2023-01-09T12:08:45.092Z,10.86
2023-01-09T12:09:45.089Z,10.95
2023-01-09T12:10:45.202Z,10.98
2023-01-09T12:11:45.052Z,11.01
2023-01-09T12:12:45.049Z,11.01
2023-01-09T12:13:45.145Z,10.91
2023-01-09T12:14:45.048Z,10.84
2023-01-09T12:15:44.984Z,10.88
2023-01-09T12:16:45.061Z,10.84
2023-01-09T12:17:44.952Z,10.83
2023-01-09T12:18:44.994Z,10.81
2023-01-09T12:19:45.097Z,10.74
2023-01-09T12:20:44.927Z,10.71
2023-01-09T12:21:44.929Z,10.60
2023-01-09T12:22:44.950Z,10.59
2023-01-09T12:23:44.880Z,10.55
2023-01-09T12:24:44.860Z,10.46
2023-01-09T12:25:44.988Z,10.39
2023-01-09T12:26:44.904Z,10.34
2023-01-09T12:27:44.830Z,10.32
2023-01-09T12:28:45.004Z,10.24
2023-01-09T12:29:44.917Z,10.10
2023-01-09T12:30:44.773Z,10.03
2023-01-09T12:31:44.928Z,9.97
2023-01-09T12:32:44.759Z,9.91
2023-01-09T12:33:44.741Z,9.91
2023-01-09T12:34:44.774Z,9.85
2023-01-09T12:35:44.832Z,9.82
2023-01-09T12:36:44.787Z,9.82
2023-01-09T12:37:44.987Z,9.83
2023-01-09T12:38:44.788Z,9.81
2023-01-09T12:39:45.865Z,9.73
2023-01-09T12:40:44.684Z,9.75
2023-01-09T12:41:47.537Z,9.67
2023-01-09T12:42:44.625Z,9.60
2023-01-09T12:43:44.590Z,9.52
2023-01-09T12:44:44.731Z,9.52
2023-01-09T12:45:44.679Z,9.53
2023-01-09T12:46:44.573Z,9.57
2023-01-09T12:47:45.728Z,9.61
2023-01-09T12:49:15.367Z,9.58
2023-01-09T12:49:44.512Z,9.42
2023-01-09T12:50:44.560Z,9.49
2023-01-09T12:51:44.654Z,9.66
2023-01-09T12:52:44.551Z,9.67
2023-01-09T12:53:44.509Z,9.71
2023-01-09T12:54:44.558Z,9.78
2023-01-09T12:55:44.480Z,9.83
2023-01-09T12:56:44.518Z,9.88
2023-01-09T12:57:44.443Z,9.91
2023-01-09T12:58:44.481Z,9.94
2023-01-09T12:59:44.494Z,9.94
2023-01-09T13:00:44.466Z,9.97
2023-01-09T13:01:44.798Z,10.03
2023-01-09T13:02:44.352Z,10.04
2023-01-09T13:03:44.376Z,10.09
2023-01-09T13:04:44.490Z,10.09
2023-01-09T13:05:44.328Z,10.15
2023-01-09T13:06:44.351Z,10.21
2023-01-09T13:07:44.606Z,10.18
2023-01-09T13:08:44.337Z,10.28
2023-01-09T13:09:44.273Z,10.28
2023-01-09T13:10:44.243Z,10.25
2023-01-09T13:11:44.231Z,10.25
2023-01-09T13:12:44.288Z,10.24
2023-01-09T13:13:44.210Z,10.26
2023-01-09T13:14:44.237Z,10.32
2023-01-09T13:15:44.203Z,10.33
2023-01-09T13:16:44.226Z,10.33